Oregon City, Oregon
Current Conditions -  °F | °C
As of 4:25 AM on Friday 31 Oct 2014 (Local Time) from KUAO Reporting Station
Light Rain Light Rain  
Wind Chill: 56°   Ceiling: 300
Heat Index: 56°   Visibility: 5mi
Dew Point: 55°   Wind: 3mph
Humidity: 97%   Direction: 360°N
Pressure: 29.68"   Gusts: NA
Location:  45.34°N, 122.59°W
Report Text: KUAO 311125Z AUTO 36003KT 5SM -RA BR BKN003 OVC038 13/13 A2968 RMK AO2 P0005 T01330128
Loading
Personal Weather Stations






























Interactive Weather Map
Tropical Storm Tracking
New forecast layout! Learn more

10-Day Weather Forecast

Advertisements
Track Severe Weather on mobile